Terminal Aerodrome Forecast
Issued by NWS Lake Charles, LA

Home | Current Version | Previous Version | Text Only | Print | Product List | Glossary On
Versions: 1 2 3 4 5 6 7 8 9 10 11 12 13 14 15
000
FTUS44 KLCH 272300
TAFARA
TAF
KARA 272320Z 2800/2824 25008KT P6SM VCSH SCT040
     FM280200 23005KT P6SM SKC
     FM281600 29012KT P6SM FEW040
     FM281800 29011KT P6SM VCTS SCT050CB=

USA.gov is the U.S. government's official web portal to all federal, state and local government web resources and services.